Time;durP1;ratioP1;P1;durP2;ratioP2;P2;SDS_P1;SDS_P2;PMS_P1;PMS_P2;Temp;Humidity;BMP_temperature;BMP_pressure;BME280_temperature;BME280_humidity;BME280_pressure;Samples;Min_cycle;Max_cycle;Signal;HPM_P1;HPM_P2
2023/02/26 00:00:31;;;;;;;15.55;4.00;;;3.10;99.90;;;;;;5031991;28;20045;-59
2023/02/26 00:02:58;;;;;;;17.75;2.97;;;3.10;99.90;;;;;;5033098;28;20425;-58
2023/02/26 00:05:24;;;;;;;13.40;3.38;;;3.10;99.90;;;;;;5031876;28;20488;-57
2023/02/26 00:07:52;;;;;;;15.07;2.70;;;3.10;99.90;;;;;;5032531;28;20139;-58
2023/02/26 00:10:19;;;;;;;11.13;2.50;;;3.10;99.90;;;;;;5033203;28;20064;-57
2023/02/26 00:12:45;;;;;;;19.98;2.30;;;3.00;99.90;;;;;;5033370;28;20064;-57
2023/02/26 00:15:13;;;;;;;15.77;2.58;;;3.00;99.90;;;;;;5033269;28;20087;-58
2023/02/26 00:17:40;;;;;;;11.93;2.80;;;2.90;99.90;;;;;;5032597;28;20443;-56
2023/02/26 00:20:07;;;;;;;15.43;2.67;;;2.90;99.90;;;;;;5032951;28;20044;-59
2023/02/26 00:22:35;;;;;;;13.98;3.00;;;2.90;99.90;;;;;;5031883;28;20041;-56
2023/02/26 00:25:01;;;;;;;16.13;2.83;;;2.90;99.90;;;;;;5033114;28;20045;-57
2023/02/26 00:27:28;;;;;;;11.88;2.70;;;2.90;99.90;;;;;;5033075;28;20069;-58
2023/02/26 00:29:55;;;;;;;19.27;3.03;;;2.90;99.90;;;;;;5032936;28;20041;-58
2023/02/26 00:32:22;;;;;;;17.08;2.83;;;2.80;99.90;;;;;;5032567;28;20115;-54
2023/02/26 00:34:49;;;;;;;15.95;3.25;;;2.80;99.90;;;;;;5033030;28;20045;-59
2023/02/26 00:37:15;;;;;;;17.75;2.88;;;2.80;99.90;;;;;;5031906;28;20046;-55
2023/02/26 00:39:42;;;;;;;19.70;2.50;;;2.80;99.90;;;;;;5033183;28;20041;-57
2023/02/26 00:42:09;;;;;;;14.38;3.20;;;2.80;99.90;;;;;;5033109;28;20408;-55
2023/02/26 00:44:37;;;;;;;18.33;3.75;;;2.80;99.90;;;;;;5031754;28;20080;-58
2023/02/26 00:47:04;;;;;;;14.70;3.47;;;2.80;99.90;;;;;;5032959;28;20045;-53
2023/02/26 00:49:30;;;;;;;14.93;4.03;;;2.80;99.90;;;;;;5035131;28;20094;-54
2023/02/26 00:51:57;;;;;;;20.38;4.63;;;2.80;99.90;;;;;;5042635;28;20420;-56
2023/02/26 00:54:24;;;;;;;13.85;3.72;;;2.80;99.90;;;;;;5031324;28;20488;-59
2023/02/26 00:56:50;;;;;;;21.50;4.80;;;2.80;99.90;;;;;;5031726;28;20451;-58
2023/02/26 00:59:17;;;;;;;16.40;3.85;;;2.80;99.90;;;;;;5031540;28;20042;-60
2023/02/26 01:01:44;;;;;;;17.02;4.07;;;2.80;99.90;;;;;;5031110;28;20048;-58
2023/02/26 01:04:11;;;;;;;11.15;3.08;;;2.70;99.90;;;;;;5028150;28;20247;-57
2023/02/26 01:06:38;;;;;;;14.30;2.88;;;2.70;99.90;;;;;;5031521;28;20076;-57
2023/02/26 01:09:05;;;;;;;12.68;2.65;;;2.70;99.90;;;;;;5032812;28;20041;-59
2023/02/26 01:11:32;;;;;;;11.13;2.63;;;2.70;99.90;;;;;;5032476;28;20420;-55
2023/02/26 01:13:59;;;;;;;11.90;2.58;;;2.70;99.90;;;;;;5031295;28;20136;-49
2023/02/26 01:16:25;;;;;;;11.43;1.92;;;2.70;99.90;;;;;;5032651;28;20050;-53
2023/02/26 01:18:53;;;;;;;10.90;2.50;;;2.70;99.90;;;;;;5033404;28;20046;-55
2023/02/26 01:21:19;;;;;;;13.02;2.90;;;2.70;99.90;;;;;;5036242;28;20041;-60
2023/02/26 01:23:46;;;;;;;11.80;2.53;;;2.70;99.90;;;;;;5034596;28;20055;-59
2023/02/26 01:26:13;;;;;;;12.00;2.78;;;2.70;99.90;;;;;;5034304;28;20042;-60
2023/02/26 01:28:41;;;;;;;16.23;2.85;;;2.60;99.90;;;;;;5036029;28;20079;-54
2023/02/26 01:31:11;;;;;;;11.68;2.58;;;2.60;99.90;;;;;;5034491;28;20100;-58
2023/02/26 01:33:38;;;;;;;17.00;2.95;;;2.60;99.90;;;;;;5035741;28;20516;-60
2023/02/26 01:36:04;;;;;;;14.98;2.45;;;2.60;99.90;;;;;;5034814;28;20480;-52
2023/02/26 01:38:32;;;;;;;13.20;2.33;;;2.60;99.90;;;;;;5035806;28;20037;-53
2023/02/26 01:40:59;;;;;;;12.13;2.30;;;2.50;99.90;;;;;;5035000;28;20033;-56
2023/02/26 01:43:26;;;;;;;19.10;2.38;;;2.50;99.90;;;;;;5035347;28;20531;-52
2023/02/26 01:45:53;;;;;;;11.73;2.40;;;2.50;99.90;;;;;;5035511;28;20057;-55
2023/02/26 01:48:20;;;;;;;10.50;2.40;;;2.50;99.90;;;;;;5033076;28;20045;-58
2023/02/26 01:50:46;;;;;;;15.43;2.70;;;2.50;99.90;;;;;;5033101;28;20095;-58
2023/02/26 01:53:13;;;;;;;11.07;2.20;;;2.40;99.90;;;;;;5032767;28;20048;-55
2023/02/26 01:55:40;;;;;;;11.27;2.33;;;2.40;99.90;;;;;;5034012;28;20044;-53
2023/02/26 01:58:09;;;;;;;11.90;2.35;;;2.40;99.90;;;;;;5034006;28;20107;-56
2023/02/26 02:00:35;;;;;;;13.10;2.20;;;2.40;99.90;;;;;;5032956;28;20048;-57
2023/02/26 02:03:02;;;;;;;10.55;1.90;;;2.40;99.90;;;;;;5035623;28;20049;-54
2023/02/26 02:05:30;;;;;;;12.25;2.10;;;2.40;99.90;;;;;;5034132;28;20072;-53
2023/02/26 02:07:57;;;;;;;14.18;2.45;;;2.40;99.90;;;;;;5035717;28;20056;-56
2023/02/26 02:10:23;;;;;;;12.25;2.40;;;2.30;99.90;;;;;;5035191;28;20058;-53
2023/02/26 02:12:51;;;;;;;12.82;2.33;;;2.30;99.90;;;;;;5035499;28;20042;-55
2023/02/26 02:15:18;;;;;;;12.15;2.33;;;2.30;99.90;;;;;;5035333;28;20061;-51
2023/02/26 02:17:45;;;;;;;13.63;2.70;;;2.30;99.90;;;;;;5034236;28;20132;-53
2023/02/26 02:20:12;;;;;;;12.20;2.42;;;2.30;99.90;;;;;;5035490;28;20467;-55
2023/02/26 02:22:39;;;;;;;11.10;2.80;;;2.30;99.90;;;;;;5033945;28;20049;-56
2023/02/26 02:25:05;;;;;;;17.42;2.63;;;2.30;99.90;;;;;;5035446;28;20099;-54
2023/02/26 02:27:34;;;;;;;11.40;2.35;;;2.30;99.90;;;;;;5034571;28;20049;-55
2023/02/26 02:30:00;;;;;;;11.15;2.38;;;2.30;99.90;;;;;;5034431;28;20059;-55
2023/02/26 02:32:27;;;;;;;8.85;2.30;;;2.20;99.90;;;;;;5034356;28;20083;-56
2023/02/26 02:34:54;;;;;;;16.77;2.67;;;2.20;99.90;;;;;;5035314;28;20041;-54
2023/02/26 02:37:21;;;;;;;18.67;3.70;;;2.20;99.90;;;;;;5034021;28;20068;-56
2023/02/26 02:39:48;;;;;;;14.82;3.53;;;2.30;99.90;;;;;;5035191;28;20069;-53
2023/02/26 02:42:16;;;;;;;8.35;2.22;;;2.30;99.90;;;;;;5034839;28;20038;-55
2023/02/26 02:44:44;;;;;;;11.55;1.95;;;2.30;99.90;;;;;;5035317;28;20057;-55
2023/02/26 02:47:10;;;;;;;13.07;2.20;;;2.30;99.90;;;;;;5035291;28;20076;-54
2023/02/26 02:49:37;;;;;;;14.32;2.45;;;2.30;99.90;;;;;;5034761;28;20076;-51
2023/02/26 02:52:05;;;;;;;9.75;1.95;;;2.30;99.90;;;;;;5033887;28;20080;-57
2023/02/26 02:54:32;;;;;;;15.82;2.63;;;2.30;99.90;;;;;;5033030;28;20049;-53
2023/02/26 02:56:59;;;;;;;10.00;2.28;;;2.30;99.90;;;;;;5034488;28;20045;-52
2023/02/26 02:59:25;;;;;;;14.70;2.42;;;2.30;99.90;;;;;;5033390;28;20068;-52
2023/02/26 03:01:52;;;;;;;10.40;2.30;;;2.30;99.90;;;;;;5033090;28;20072;-49
2023/02/26 03:04:19;;;;;;;18.20;2.70;;;2.30;99.90;;;;;;5033519;28;20047;-51
2023/02/26 03:06:48;;;;;;;15.73;2.40;;;2.30;99.90;;;;;;5034867;28;20049;-56
2023/02/26 03:09:17;;;;;;;15.30;2.88;;;2.30;99.90;;;;;;5034538;28;20507;-51
2023/02/26 03:11:44;;;;;;;11.80;2.50;;;2.30;99.90;;;;;;5034456;28;20115;-51
2023/02/26 03:14:11;;;;;;;12.40;2.30;;;2.20;99.90;;;;;;5033019;28;20049;-54
2023/02/26 03:16:38;;;;;;;12.60;2.85;;;2.30;99.90;;;;;;5034088;28;20057;-56
2023/02/26 03:19:05;;;;;;;12.63;2.20;;;2.30;99.90;;;;;;5033095;28;20037;-55
2023/02/26 03:21:36;;;;;;;10.95;2.35;;;2.30;99.90;;;;;;5017267;28;20041;-59
2023/02/26 03:24:04;;;;;;;13.43;2.35;;;2.40;99.90;;;;;;5032825;28;20276;-59
2023/02/26 03:26:31;;;;;;;15.27;2.63;;;2.40;99.90;;;;;;5016446;28;20501;-57
2023/02/26 03:28:59;;;;;;;17.10;2.45;;;2.50;99.90;;;;;;5033124;28;20099;-54
2023/02/26 03:31:26;;;;;;;12.57;3.03;;;2.50;99.90;;;;;;5032972;28;20053;-58
2023/02/26 03:33:53;;;;;;;12.15;2.15;;;2.60;99.90;;;;;;5034014;28;20159;-51
2023/02/26 03:36:20;;;;;;;13.50;2.40;;;2.60;99.90;;;;;;5034413;28;20045;-53
2023/02/26 03:39:01;;;;;;;16.90;2.85;;;2.60;99.90;;;;;;5032423;28;20065;-54
2023/02/26 03:41:29;;;;;;;14.18;3.05;;;2.60;99.90;;;;;;5032309;28;20488;-53
2023/02/26 03:43:55;;;;;;;18.08;2.78;;;2.60;99.90;;;;;;5032580;28;20065;-54
2023/02/26 03:46:22;;;;;;;12.05;2.20;;;2.70;99.90;;;;;;5032487;28;20484;-59
2023/02/26 03:48:50;;;;;;;13.63;2.63;;;2.70;99.90;;;;;;5033916;28;20148;-54
2023/02/26 03:51:18;;;;;;;14.63;2.70;;;2.70;99.90;;;;;;5032826;28;20065;-54
2023/02/26 03:54:00;;;;;;;12.15;2.33;;;2.70;99.90;;;;;;5032736;28;20128;-54
2023/02/26 03:56:30;;;;;;;10.63;2.28;;;2.80;99.90;;;;;;5032704;28;20088;-54
2023/02/26 03:59:11;;;;;;;14.23;2.78;;;2.80;99.90;;;;;;5033799;28;20076;-52
2023/02/26 04:01:41;;;;;;;9.05;2.03;;;2.80;99.90;;;;;;5033786;28;20065;-54
2023/02/26 04:04:08;;;;;;;10.98;2.25;;;2.90;99.90;;;;;;5032208;28;20517;-57
2023/02/26 04:06:35;;;;;;;9.95;2.42;;;2.90;99.90;;;;;;5031956;28;20087;-56
2023/02/26 04:09:02;;;;;;;12.88;3.60;;;2.90;99.90;;;;;;5032159;28;20045;-59
2023/02/26 04:11:31;;;;;;;10.93;2.50;;;2.90;99.90;;;;;;5031915;28;20068;-55
2023/02/26 04:13:58;;;;;;;14.30;2.45;;;2.90;99.90;;;;;;5031954;28;20346;-57
2023/02/26 04:16:25;;;;;;;13.20;2.28;;;3.00;99.90;;;;;;5032495;28;20439;-58
2023/02/26 04:18:52;;;;;;;10.90;2.70;;;3.00;99.90;;;;;;5032276;28;20053;-58
2023/02/26 04:21:19;;;;;;;9.07;2.20;;;3.00;99.90;;;;;;5031927;28;20045;-54
2023/02/26 04:23:46;;;;;;;17.60;2.47;;;3.00;99.90;;;;;;5032203;28;20072;-54
2023/02/26 04:26:13;;;;;;;10.57;2.00;;;3.10;99.90;;;;;;5033244;28;20044;-57
2023/02/26 04:28:40;;;;;;;11.00;2.67;;;3.10;99.90;;;;;;5032439;28;20065;-58
2023/02/26 04:31:09;;;;;;;10.55;1.95;;;3.10;99.90;;;;;;5033410;28;20076;-54
2023/02/26 04:33:37;;;;;;;11.80;2.28;;;3.10;99.90;;;;;;5031719;28;20052;-60
2023/02/26 04:36:04;;;;;;;11.30;2.38;;;3.10;99.90;;;;;;5031754;28;20050;-54
2023/02/26 04:38:31;;;;;;;12.77;2.38;;;3.20;99.90;;;;;;5033198;28;20038;-55
2023/02/26 04:40:57;;;;;;;12.00;2.67;;;3.20;99.90;;;;;;5032131;28;20053;-57
2023/02/26 04:43:24;;;;;;;12.55;2.75;;;3.20;99.90;;;;;;5031579;28;20056;-52
2023/02/26 04:46:06;;;;;;;11.77;2.63;;;3.20;99.90;;;;;;5031877;28;20053;-56
2023/02/26 04:48:34;;;;;;;12.30;2.28;;;3.20;99.90;;;;;;5032998;28;20568;-49
2023/02/26 04:51:01;;;;;;;12.73;1.98;;;3.30;99.90;;;;;;5032919;28;20048;-56
2023/02/26 04:53:28;;;;;;;15.13;1.95;;;3.20;99.90;;;;;;5016690;28;20272;-55
2023/02/26 04:55:55;;;;;;;15.95;2.20;;;3.20;99.90;;;;;;5035213;28;20489;-58
2023/02/26 04:58:21;;;;;;;10.02;1.60;;;3.20;99.90;;;;;;5035631;28;20107;-57
2023/02/26 05:00:48;;;;;;;15.70;2.30;;;3.20;99.90;;;;;;5035500;28;20083;-55
2023/02/26 05:03:15;;;;;;;7.88;2.00;;;3.10;99.90;;;;;;5037142;28;20046;-50
2023/02/26 05:05:42;;;;;;;13.13;2.22;;;3.10;99.90;;;;;;5035880;28;20153;-57
2023/02/26 05:08:08;;;;;;;8.70;2.08;;;3.10;99.90;;;;;;5035431;28;20045;-56
2023/02/26 05:10:35;;;;;;;10.75;2.00;;;3.10;99.90;;;;;;5035358;28;20103;-55
2023/02/26 05:13:02;;;;;;;12.52;2.40;;;3.10;99.90;;;;;;5036369;28;20055;-52
2023/02/26 05:15:29;;;;;;;13.18;2.65;;;3.10;99.90;;;;;;5036351;28;20042;-55
2023/02/26 05:17:56;;;;;;;16.38;2.90;;;3.10;99.90;;;;;;5035626;28;20477;-58
2023/02/26 05:20:23;;;;;;;10.88;2.05;;;3.10;99.90;;;;;;5035225;28;20041;-55
2023/02/26 05:22:50;;;;;;;11.68;2.10;;;3.10;99.90;;;;;;5034831;28;20041;-51
2023/02/26 05:25:17;;;;;;;11.30;2.20;;;3.10;99.90;;;;;;5035001;28;20048;-53
2023/02/26 05:27:44;;;;;;;15.38;2.17;;;3.10;99.90;;;;;;5036203;28;20423;-59
2023/02/26 05:30:11;;;;;;;16.67;2.42;;;3.10;99.90;;;;;;5035207;28;20133;-58
2023/02/26 05:32:38;;;;;;;12.95;2.20;;;3.10;99.90;;;;;;5034639;28;20052;-54
2023/02/26 05:35:04;;;;;;;12.77;2.47;;;3.10;99.90;;;;;;5035954;28;20103;-57
2023/02/26 05:37:31;;;;;;;13.95;2.10;;;3.10;99.90;;;;;;5035148;28;20451;-57
2023/02/26 05:39:58;;;;;;;14.57;3.10;;;3.10;99.90;;;;;;5036221;28;20042;-55
2023/02/26 05:42:25;;;;;;;11.90;2.03;;;3.10;99.90;;;;;;5036313;28;20065;-56
2023/02/26 05:44:52;;;;;;;12.57;2.45;;;3.10;99.90;;;;;;5036017;28;20100;-56
2023/02/26 05:47:19;;;;;;;9.13;1.90;;;3.10;99.90;;;;;;5036512;28;20037;-54
2023/02/26 05:49:45;;;;;;;10.30;1.98;;;3.10;99.90;;;;;;5036173;28;20488;-55
2023/02/26 05:52:12;;;;;;;14.88;2.33;;;3.10;99.90;;;;;;5035984;28;20072;-56
2023/02/26 05:54:39;;;;;;;14.13;2.50;;;3.10;99.90;;;;;;5035912;28;20042;-58
2023/02/26 05:57:06;;;;;;;11.63;2.50;;;3.00;99.90;;;;;;5034552;28;20480;-55
2023/02/26 05:59:32;;;;;;;8.07;2.22;;;3.00;99.90;;;;;;5035801;28;20045;-58
2023/02/26 06:01:59;;;;;;;15.25;3.08;;;3.00;99.90;;;;;;5036109;28;20451;-58
2023/02/26 06:04:26;;;;;;;15.23;2.10;;;2.90;99.90;;;;;;5035426;28;20053;-57
2023/02/26 06:06:53;;;;;;;9.70;1.92;;;2.90;99.90;;;;;;5035772;28;20492;-55
2023/02/26 06:09:19;;;;;;;16.80;2.55;;;2.90;99.90;;;;;;5035771;28;20041;-52
2023/02/26 06:11:46;;;;;;;10.35;2.10;;;2.80;99.90;;;;;;5035671;28;20042;-56
2023/02/26 06:14:13;;;;;;;11.63;2.03;;;2.80;99.90;;;;;;5035733;28;20072;-56
2023/02/26 06:16:40;;;;;;;14.73;2.22;;;2.80;99.90;;;;;;5035333;28;20046;-54
2023/02/26 06:19:06;;;;;;;11.60;2.13;;;2.80;99.90;;;;;;5035777;28;20080;-55
2023/02/26 06:21:33;;;;;;;8.93;2.35;;;2.80;99.90;;;;;;5035840;28;20046;-54
2023/02/26 06:24:00;;;;;;;11.20;2.42;;;2.80;99.90;;;;;;5035619;28;20037;-54
2023/02/26 06:26:26;;;;;;;8.50;2.00;;;2.80;99.90;;;;;;5035217;28;20477;-56
2023/02/26 06:28:54;;;;;;;13.32;2.15;;;2.80;99.90;;;;;;5035373;28;20049;-59
2023/02/26 06:31:20;;;;;;;11.23;2.22;;;2.80;99.90;;;;;;5034990;28;20045;-58
2023/02/26 06:33:47;;;;;;;10.00;2.47;;;2.80;99.90;;;;;;5035322;28;20049;-55
2023/02/26 06:36:14;;;;;;;11.07;1.83;;;2.80;99.90;;;;;;5035234;28;20095;-58
2023/02/26 06:38:41;;;;;;;11.02;2.45;;;2.80;99.90;;;;;;5035110;28;20382;-52
2023/02/26 06:41:07;;;;;;;13.35;2.20;;;2.90;99.90;;;;;;5035035;28;20068;-59
2023/02/26 06:43:34;;;;;;;12.98;2.20;;;2.90;99.90;;;;;;5033607;28;20444;-54
2023/02/26 06:46:01;;;;;;;11.02;2.13;;;2.90;99.90;;;;;;5034551;28;20064;-56
2023/02/26 06:48:28;;;;;;;12.25;2.78;;;2.80;99.90;;;;;;5034733;28;20548;-53
2023/02/26 06:50:55;;;;;;;8.32;2.00;;;2.80;99.90;;;;;;5033378;28;20050;-55
2023/02/26 06:53:21;;;;;;;8.65;2.05;;;2.70;99.90;;;;;;5034802;28;20047;-58
2023/02/26 06:55:48;;;;;;;8.27;2.20;;;2.70;99.90;;;;;;5034825;28;20037;-56
2023/02/26 06:58:15;;;;;;;9.43;1.92;;;2.70;99.90;;;;;;5033670;28;20103;-56
2023/02/26 07:00:42;;;;;;;8.50;1.77;;;2.60;99.90;;;;;;5035120;28;20107;-53
2023/02/26 07:03:08;;;;;;;11.48;2.72;;;2.60;99.90;;;;;;5034632;28;20037;-49
2023/02/26 07:05:35;;;;;;;12.52;2.28;;;2.60;99.90;;;;;;5034658;28;20503;-50
2023/02/26 07:08:04;;;;;;;11.55;2.90;;;2.60;99.90;;;;;;5034743;28;20492;-56
2023/02/26 07:10:31;;;;;;;11.73;1.90;;;2.60;99.90;;;;;;5034588;28;20148;-55
2023/02/26 07:12:57;;;;;;;12.07;2.00;;;2.60;99.90;;;;;;5033473;28;20033;-54
2023/02/26 07:15:24;;;;;;;15.90;2.35;;;2.70;99.90;;;;;;5034293;28;20042;-55
2023/02/26 07:17:51;;;;;;;8.60;1.90;;;2.70;99.90;;;;;;5034900;28;20050;-50
2023/02/26 07:20:18;;;;;;;11.05;1.80;;;2.80;99.90;;;;;;5034563;28;20061;-56
2023/02/26 07:22:44;;;;;;;14.55;2.05;;;2.80;99.90;;;;;;5034809;28;20045;-53
2023/02/26 07:25:11;;;;;;;12.02;2.08;;;2.90;99.90;;;;;;5034069;28;20045;-54
2023/02/26 07:27:38;;;;;;;12.65;2.13;;;2.90;99.90;;;;;;5033962;28;20048;-55
2023/02/26 07:30:05;;;;;;;11.55;2.55;;;2.90;99.90;;;;;;5034301;28;20050;-58
2023/02/26 07:32:31;;;;;;;11.25;1.92;;;3.00;99.90;;;;;;5034190;28;20051;-58
2023/02/26 07:34:58;;;;;;;6.25;1.25;;;3.00;99.90;;;;;;5033985;28;20041;-50
2023/02/26 07:37:25;;;;;;;14.57;1.92;;;3.00;99.90;;;;;;5034037;28;20376;-51
2023/02/26 07:39:52;;;;;;;14.15;2.20;;;3.00;99.90;;;;;;5034072;28;20512;-53
2023/02/26 07:42:19;;;;;;;10.02;1.88;;;3.00;99.90;;;;;;5034747;28;20121;-53
2023/02/26 07:44:45;;;;;;;9.38;1.83;;;3.10;99.90;;;;;;5034256;28;20043;-53
2023/02/26 07:47:12;;;;;;;9.15;2.25;;;3.00;99.90;;;;;;5034041;28;20049;-54
2023/02/26 07:49:39;;;;;;;10.00;1.77;;;3.00;99.90;;;;;;5033984;28;20099;-52
2023/02/26 07:52:06;;;;;;;10.63;1.92;;;3.00;99.90;;;;;;5034077;28;20041;-52
2023/02/26 07:54:33;;;;;;;9.70;2.10;;;3.00;99.90;;;;;;5033989;28;20049;-55
2023/02/26 07:57:00;;;;;;;10.38;2.10;;;2.90;99.90;;;;;;5033550;28;20041;-56
2023/02/26 07:59:27;;;;;;;15.10;1.80;;;2.90;99.90;;;;;;5034011;28;20075;-53
2023/02/26 08:01:54;;;;;;;9.88;2.15;;;2.90;99.90;;;;;;5033628;28;20392;-55
2023/02/26 08:04:21;;;;;;;10.32;2.28;;;2.90;99.90;;;;;;5033292;28;20045;-52
2023/02/26 08:06:48;;;;;;;8.32;2.15;;;2.90;99.90;;;;;;5033810;28;20051;-53
2023/02/26 08:09:15;;;;;;;11.10;1.73;;;2.90;99.90;;;;;;5033299;28;20126;-52
2023/02/26 08:11:42;;;;;;;11.07;2.00;;;2.90;99.90;;;;;;5033374;28;20061;-56
2023/02/26 08:14:09;;;;;;;8.90;1.80;;;2.90;99.90;;;;;;5032642;28;20561;-56
2023/02/26 08:16:35;;;;;;;17.67;2.10;;;2.90;99.90;;;;;;5033454;28;20049;-54
2023/02/26 08:19:02;;;;;;;11.68;2.83;;;3.00;99.90;;;;;;5033222;28;20507;-49
2023/02/26 08:21:29;;;;;;;9.68;1.90;;;3.00;99.90;;;;;;5033873;28;20464;-50
2023/02/26 08:23:56;;;;;;;9.48;1.98;;;3.10;99.90;;;;;;5033103;28;20128;-51
2023/02/26 08:26:22;;;;;;;10.70;1.90;;;3.10;99.90;;;;;;5033649;28;20046;-51
2023/02/26 08:28:50;;;;;;;12.20;2.10;;;3.20;99.90;;;;;;5037801;28;20083;-51
2023/02/26 08:31:16;;;;;;;8.93;1.77;;;3.10;99.90;;;;;;5037489;28;20472;-57
2023/02/26 08:33:43;;;;;;;11.05;1.65;;;3.20;99.90;;;;;;5037412;28;20495;-56
2023/02/26 08:36:10;;;;;;;13.00;1.98;;;3.20;99.90;;;;;;5037774;28;20079;-57
2023/02/26 08:38:37;;;;;;;7.60;1.58;;;3.30;99.90;;;;;;5037343;28;20072;-54
2023/02/26 08:41:04;;;;;;;13.50;1.95;;;3.30;99.90;;;;;;5037479;28;20155;-50
2023/02/26 08:43:31;;;;;;;9.45;1.63;;;3.40;99.90;;;;;;5037100;28;20056;-57
2023/02/26 08:45:58;;;;;;;9.70;2.08;;;3.50;99.90;;;;;;5037211;28;20055;-51
2023/02/26 08:48:25;;;;;;;13.07;1.77;;;3.50;99.90;;;;;;5037219;28;20099;-55
2023/02/26 08:50:52;;;;;;;10.77;1.52;;;3.60;99.90;;;;;;5037244;28;20042;-55
2023/02/26 08:53:19;;;;;;;14.38;2.10;;;3.60;99.90;;;;;;5036715;28;20045;-57
2023/02/26 08:55:45;;;;;;;11.65;2.00;;;3.70;99.90;;;;;;5037294;28;20091;-56
2023/02/26 08:58:12;;;;;;;7.78;1.50;;;3.80;99.90;;;;;;5035779;28;20045;-56
2023/02/26 09:00:39;;;;;;;8.07;1.63;;;3.80;99.90;;;;;;5036524;28;20409;-53
2023/02/26 09:03:06;;;;;;;11.02;1.42;;;3.90;99.90;;;;;;5036546;28;20408;-57
2023/02/26 09:05:33;;;;;;;11.00;1.63;;;3.90;99.90;;;;;;5035800;28;20457;-51
2023/02/26 09:07:59;;;;;;;10.98;1.85;;;4.00;99.90;;;;;;5036753;28;20554;-56
2023/02/26 09:10:26;;;;;;;13.55;2.33;;;4.00;99.90;;;;;;5036125;28;20057;-58
2023/02/26 09:12:53;;;;;;;9.95;1.92;;;4.10;99.90;;;;;;5035119;28;20046;-59
2023/02/26 09:15:20;;;;;;;9.13;1.70;;;4.20;99.90;;;;;;5036540;28;20038;-57
2023/02/26 09:17:47;;;;;;;10.25;1.70;;;4.30;99.90;;;;;;5034963;28;20128;-57
2023/02/26 09:20:14;;;;;;;12.70;2.53;;;4.30;99.90;;;;;;5036687;28;20045;-57
2023/02/26 09:22:41;;;;;;;6.47;1.50;;;4.40;99.90;;;;;;5034700;28;20461;-59
2023/02/26 09:25:08;;;;;;;9.60;1.70;;;4.50;99.90;;;;;;5029656;28;20037;-60
2023/02/26 09:27:35;;;;;;;9.10;1.73;;;4.60;99.90;;;;;;5035529;28;20076;-59
2023/02/26 09:30:02;;;;;;;9.10;1.65;;;4.60;99.90;;;;;;5035108;28;20045;-58
2023/02/26 09:32:28;;;;;;;5.07;1.42;;;4.70;99.90;;;;;;5036333;28;20073;-59
2023/02/26 09:34:55;;;;;;;12.57;2.75;;;4.80;99.90;;;;;;5035497;28;20156;-58
2023/02/26 09:37:22;;;;;;;10.45;2.10;;;4.80;99.90;;;;;;5036590;28;20366;-58
2023/02/26 09:39:49;;;;;;;13.52;2.15;;;4.90;99.90;;;;;;5035789;28;20091;-55
2023/02/26 09:42:17;;;;;;;8.50;1.48;;;4.90;99.90;;;;;;5036149;28;20103;-55
2023/02/26 09:44:44;;;;;;;7.50;1.60;;;5.00;99.90;;;;;;5036067;28;20037;-58
2023/02/26 09:47:11;;;;;;;6.22;1.48;;;5.00;99.90;;;;;;5036265;28;20053;-57
2023/02/26 09:49:37;;;;;;;5.45;1.98;;;5.10;99.90;;;;;;5036163;28;20111;-54
2023/02/26 09:52:04;;;;;;;10.07;1.45;;;5.10;99.90;;;;;;5036221;28;20045;-56
2023/02/26 09:54:31;;;;;;;9.55;1.55;;;5.10;99.90;;;;;;5032892;28;20431;-53
2023/02/26 09:56:58;;;;;;;6.28;1.73;;;5.10;99.90;;;;;;5017446;28;20045;-58
2023/02/26 09:59:24;;;;;;;8.07;1.85;;;5.20;99.90;;;;;;5016641;28;20050;-58
2023/02/26 10:01:51;;;;;;;10.15;1.33;;;5.20;99.90;;;;;;5016512;28;20424;-59
2023/02/26 10:04:18;;;;;;;6.35;1.85;;;5.30;99.90;;;;;;5016256;28;20042;-55
2023/02/26 10:06:46;;;;;;;5.38;1.30;;;5.40;99.90;;;;;;5015958;28;20489;-53
2023/02/26 10:09:13;;;;;;;11.23;3.13;;;5.50;99.90;;;;;;5015158;28;20567;-58
2023/02/26 10:11:39;;;;;;;11.50;1.95;;;5.50;99.90;;;;;;5015816;28;20053;-54
2023/02/26 10:14:06;;;;;;;9.88;1.58;;;5.50;99.90;;;;;;5016272;28;20054;-57
2023/02/26 10:16:33;;;;;;;12.40;1.65;;;5.40;99.90;;;;;;5014955;28;20046;-59
2023/02/26 10:19:00;;;;;;;8.77;2.03;;;5.40;99.90;;;;;;5016009;28;20136;-52
2023/02/26 10:21:27;;;;;;;6.57;1.70;;;5.40;99.90;;;;;;5015555;28;20034;-55
2023/02/26 10:23:55;;;;;;;8.05;1.50;;;5.30;99.90;;;;;;5015474;28;20034;-56
2023/02/26 10:26:21;;;;;;;9.55;1.60;;;5.40;99.90;;;;;;5015458;28;20057;-56
2023/02/26 10:28:48;;;;;;;8.90;1.63;;;5.40;99.90;;;;;;5037775;28;20419;-51
2023/02/26 10:31:16;;;;;;;10.48;1.65;;;5.40;99.90;;;;;;5031908;28;20057;-57
2023/02/26 10:33:43;;;;;;;9.02;1.55;;;5.40;99.90;;;;;;5034502;28;20041;-56
2023/02/26 10:36:09;;;;;;;9.40;1.42;;;5.50;99.90;;;;;;5034707;28;20037;-57
2023/02/26 10:38:36;;;;;;;6.95;1.33;;;5.50;99.90;;;;;;5034284;28;20380;-55
2023/02/26 10:41:03;;;;;;;9.60;1.73;;;5.60;99.90;;;;;;5034401;28;20099;-53
2023/02/26 10:43:30;;;;;;;11.27;1.80;;;5.60;99.90;;;;;;5033872;28;20037;-51
2023/02/26 10:45:57;;;;;;;9.60;1.55;;;5.70;99.90;;;;;;5033015;28;20050;-59
2023/02/26 10:48:23;;;;;;;8.48;1.42;;;5.90;99.90;;;;;;5033435;28;20096;-60
2023/02/26 10:50:50;;;;;;;9.57;1.45;;;5.90;99.90;;;;;;5030487;28;20404;-57
2023/02/26 10:53:17;;;;;;;7.43;1.45;;;6.10;99.90;;;;;;5031108;28;20054;-56
2023/02/26 10:55:44;;;;;;;8.77;2.28;;;6.20;99.90;;;;;;5032245;28;20401;-56
2023/02/26 10:58:10;;;;;;;7.13;1.42;;;6.30;99.90;;;;;;5029733;28;20092;-52
2023/02/26 11:00:37;;;;;;;7.90;1.40;;;6.40;99.40;;;;;;5033569;28;20049;-51
2023/02/26 11:03:04;;;;;;;6.35;1.25;;;6.40;99.00;;;;;;5029837;28;20033;-54
2023/02/26 11:05:31;;;;;;;4.72;1.40;;;6.50;97.60;;;;;;5033493;28;20034;-56
2023/02/26 11:07:57;;;;;;;7.25;1.20;;;6.60;96.40;;;;;;5031781;28;20042;-59
2023/02/26 11:10:24;;;;;;;6.20;1.05;;;6.70;96.10;;;;;;5029127;28;20077;-51
2023/02/26 11:12:52;;;;;;;7.10;1.17;;;6.80;95.10;;;;;;5029704;28;20358;-56
2023/02/26 11:15:18;;;;;;;6.35;1.27;;;6.90;95.90;;;;;;5029405;28;20045;-56
2023/02/26 11:17:45;;;;;;;5.07;1.00;;;6.90;95.80;;;;;;5033679;28;20037;-56
2023/02/26 11:20:13;;;;;;;4.50;1.00;;;7.00;93.70;;;;;;5032390;28;20037;-53
2023/02/26 11:22:40;;;;;;;5.80;1.10;;;7.00;94.00;;;;;;5033779;28;20041;-54
2023/02/26 11:25:07;;;;;;;4.72;0.90;;;7.00;93.70;;;;;;5033369;28;20042;-58
2023/02/26 11:27:34;;;;;;;9.15;1.13;;;7.00;93.60;;;;;;5033449;28;20041;-58
2023/02/26 11:30:00;;;;;;;6.55;1.27;;;7.00;93.70;;;;;;5036312;28;20041;-59
2023/02/26 11:32:27;;;;;;;4.70;0.90;;;6.90;93.00;;;;;;5036515;28;20504;-56
2023/02/26 11:34:54;;;;;;;5.35;1.00;;;6.90;93.10;;;;;;5033334;28;20049;-59
2023/02/26 11:37:21;;;;;;;4.75;0.90;;;6.80;92.80;;;;;;5033569;28;20044;-58
2023/02/26 11:39:47;;;;;;;5.45;1.00;;;6.80;92.70;;;;;;5033363;28;20041;-59
2023/02/26 11:42:14;;;;;;;6.53;1.20;;;6.70;92.80;;;;;;5031707;28;20388;-58
2023/02/26 11:44:41;;;;;;;9.10;1.95;;;6.70;93.00;;;;;;5030726;28;20416;-54
2023/02/26 11:47:08;;;;;;;6.65;1.25;;;6.80;93.20;;;;;;5033462;28;20396;-52
2023/02/26 11:49:35;;;;;;;6.28;1.30;;;6.80;93.40;;;;;;5029436;28;20117;-58
2023/02/26 11:52:09;;;;;;;6.57;1.15;;;7.00;94.50;;;;;;5032516;28;20041;-58
2023/02/26 11:54:36;;;;;;;6.38;1.23;;;7.10;94.30;;;;;;5029270;28;20041;-59
2023/02/26 11:57:04;;;;;;;3.47;0.90;;;7.20;94.40;;;;;;5033270;28;20132;-56
2023/02/26 11:59:31;;;;;;;3.03;1.00;;;7.30;94.20;;;;;;5031917;28;20053;-54
2023/02/26 12:01:58;;;;;;;5.57;1.40;;;7.30;94.20;;;;;;5029301;28;20481;-54
2023/02/26 12:04:25;;;;;;;4.90;1.20;;;7.40;94.10;;;;;;5031593;28;20065;-56
2023/02/26 12:06:53;;;;;;;6.18;1.20;;;7.40;94.10;;;;;;5027878;28;20381;-53
2023/02/26 12:09:20;;;;;;;5.43;1.20;;;7.40;94.80;;;;;;5032896;28;20128;-50
2023/02/26 12:11:46;;;;;;;5.07;1.15;;;7.50;94.30;;;;;;5032904;28;20107;-53
2023/02/26 12:14:14;;;;;;;7.50;1.45;;;7.50;94.90;;;;;;5032442;28;20542;-56
2023/02/26 12:16:41;;;;;;;6.15;1.52;;;7.40;95.70;;;;;;5033027;28;20095;-56
2023/02/26 12:19:08;;;;;;;7.78;1.63;;;7.40;96.50;;;;;;5031790;28;20362;-51
2023/02/26 12:21:35;;;;;;;5.75;1.35;;;7.50;96.80;;;;;;5033303;28;20046;-54
2023/02/26 12:24:01;;;;;;;4.18;1.30;;;7.50;96.70;;;;;;5031494;28;20041;-58
2023/02/26 12:26:28;;;;;;;7.82;1.40;;;7.50;96.10;;;;;;5032907;28;20041;-54
2023/02/26 12:28:55;;;;;;;4.43;1.05;;;7.50;96.40;;;;;;5031836;28;20045;-55
2023/02/26 12:31:23;;;;;;;5.55;1.20;;;7.50;97.00;;;;;;5033055;28;20071;-52
2023/02/26 12:33:50;;;;;;;6.00;1.27;;;7.60;96.70;;;;;;5033067;28;20045;-57
2023/02/26 12:36:17;;;;;;;6.75;1.20;;;7.50;96.20;;;;;;5029374;28;20045;-55
2023/02/26 12:38:43;;;;;;;6.13;1.52;;;7.50;96.60;;;;;;5032886;28;20033;-61
2023/02/26 12:41:10;;;;;;;5.43;1.20;;;7.40;96.70;;;;;;5028441;28;20100;-58
2023/02/26 12:43:37;;;;;;;10.32;1.50;;;7.40;96.80;;;;;;5032828;28;20045;-54
2023/02/26 12:46:04;;;;;;;6.10;1.20;;;7.30;98.80;;;;;;5029444;28;20030;-57
2023/02/26 12:48:31;;;;;;;12.45;1.70;;;7.10;99.90;;;;;;5032940;28;20103;-51